sensor_id;sensor_type;location;lat;lon;timestamp;pressure;altitude;pressure_sealevel;temperature;humidity
50364;BME280;36272;59.400;17.982;2023-05-02T00:00:19;100239.16;;;9.34;82.35
50364;BME280;36272;59.400;17.982;2023-05-02T00:05:22;100240.84;;;9.28;82.16
50364;BME280;36272;59.400;17.982;2023-05-02T00:10:23;100238.50;;;9.20;82.09
50364;BME280;36272;59.400;17.982;2023-05-02T00:15:25;100245.31;;;9.16;81.90
50364;BME280;36272;59.400;17.982;2023-05-02T00:20:27;100242.97;;;9.07;82.06
50364;BME280;36272;59.400;17.982;2023-05-02T00:25:29;100238.50;;;9.01;81.99
50364;BME280;36272;59.400;17.982;2023-05-02T00:30:31;100235.47;;;8.98;82.09
50364;BME280;36272;59.400;17.982;2023-05-02T00:35:32;100234.50;;;8.92;81.88
50364;BME280;36272;59.400;17.982;2023-05-02T00:40:54;100226.34;;;8.87;82.48
50364;BME280;36272;59.400;17.982;2023-05-02T00:45:56;100228.06;;;8.81;82.01
50364;BME280;36272;59.400;17.982;2023-05-02T00:50:57;100234.88;;;8.77;82.02
50364;BME280;36272;59.400;17.982;2023-05-02T00:56:01;100224.06;;;8.72;81.72
50364;BME280;36272;59.400;17.982;2023-05-02T01:01:18;100233.25;;;8.57;81.91
50364;BME280;36272;59.400;17.982;2023-05-02T01:12:00;100248.41;;;8.31;81.94
50364;BME280;36272;59.400;17.982;2023-05-02T01:17:06;100240.31;;;8.19;81.84
50364;BME280;36272;59.400;17.982;2023-05-02T01:22:10;100255.34;;;8.14;81.50
50364;BME280;36272;59.400;17.982;2023-05-02T01:32:28;100250.59;;;7.91;80.98
50364;BME280;36272;59.400;17.982;2023-05-02T01:37:35;100255.94;;;7.84;81.06
50364;BME280;36272;59.400;17.982;2023-05-02T01:42:39;100263.75;;;7.79;80.76
50364;BME280;36272;59.400;17.982;2023-05-02T01:47:43;100272.00;;;7.70;80.79
50364;BME280;36272;59.400;17.982;2023-05-02T01:52:48;100255.28;;;7.56;80.31
50364;BME280;36272;59.400;17.982;2023-05-02T01:57:52;100263.53;;;7.48;80.43
50364;BME280;36272;59.400;17.982;2023-05-02T02:02:56;100255.13;;;7.44;80.34
50364;BME280;36272;59.400;17.982;2023-05-02T02:07:58;100282.16;;;7.41;80.18
50364;BME280;36272;59.400;17.982;2023-05-02T02:13:06;100273.00;;;7.31;80.54
50364;BME280;36272;59.400;17.982;2023-05-02T02:18:20;100282.84;;;7.23;80.19
50364;BME280;36272;59.400;17.982;2023-05-02T02:23:25;100288.81;;;7.12;80.34
50364;BME280;36272;59.400;17.982;2023-05-02T02:28:30;100300.75;;;7.03;80.34
50364;BME280;36272;59.400;17.982;2023-05-02T02:33:32;100315.88;;;6.95;80.28
50364;BME280;36272;59.400;17.982;2023-05-02T02:44:22;100304.22;;;6.90;80.73
50364;BME280;36272;59.400;17.982;2023-05-02T02:54:45;100315.91;;;6.62;80.65
50364;BME280;36272;59.400;17.982;2023-05-02T02:59:58;100328.78;;;6.51;80.71
50364;BME280;36272;59.400;17.982;2023-05-02T03:05:06;100316.94;;;6.40;80.66
50364;BME280;36272;59.400;17.982;2023-05-02T03:10:10;100351.06;;;6.30;80.61
50364;BME280;36272;59.400;17.982;2023-05-02T03:20:32;100360.84;;;6.16;80.93
50364;BME280;36272;59.400;17.982;2023-05-02T03:25:34;100364.13;;;6.12;81.00
50364;BME280;36272;59.400;17.982;2023-05-02T03:30:35;100367.38;;;6.07;81.13
50364;BME280;36272;59.400;17.982;2023-05-02T03:35:40;100375.72;;;6.04;80.75
50364;BME280;36272;59.400;17.982;2023-05-02T03:40:43;100374.09;;;6.03;80.85
50364;BME280;36272;59.400;17.982;2023-05-02T03:45:44;100375.09;;;6.02;80.77
50364;BME280;36272;59.400;17.982;2023-05-02T03:50:46;100386.53;;;5.95;80.84
50364;BME280;36272;59.400;17.982;2023-05-02T03:55:49;100388.94;;;5.90;80.85
50364;BME280;36272;59.400;17.982;2023-05-02T04:00:52;100399.13;;;5.80;80.76
50364;BME280;36272;59.400;17.982;2023-05-02T04:05:54;100406.47;;;5.78;80.83
50364;BME280;36272;59.400;17.982;2023-05-02T04:11:05;100393.81;;;5.80;81.04
50364;BME280;36272;59.400;17.982;2023-05-02T04:16:08;100421.75;;;5.76;80.87
50364;BME280;36272;59.400;17.982;2023-05-02T04:21:09;100425.44;;;5.75;80.72
50364;BME280;36272;59.400;17.982;2023-05-02T04:26:11;100436.44;;;5.72;80.58
50364;BME280;36272;59.400;17.982;2023-05-02T04:31:13;100427.84;;;5.70;80.92
50364;BME280;36272;59.400;17.982;2023-05-02T04:36:15;100443.97;;;5.68;80.85
50364;BME280;36272;59.400;17.982;2023-05-02T04:41:16;100447.81;;;5.65;81.18
50364;BME280;36272;59.400;17.982;2023-05-02T04:46:18;100452.50;;;5.63;81.00
50364;BME280;36272;59.400;17.982;2023-05-02T04:51:20;100457.00;;;5.63;80.83
50364;BME280;36272;59.400;17.982;2023-05-02T04:56:22;100469.84;;;5.59;81.07
50364;BME280;36272;59.400;17.982;2023-05-02T05:01:24;100451.47;;;5.58;81.22
50364;BME280;36272;59.400;17.982;2023-05-02T05:06:28;100472.50;;;5.59;81.14
50364;BME280;36272;59.400;17.982;2023-05-02T05:11:29;100481.06;;;5.61;81.21
50364;BME280;36272;59.400;17.982;2023-05-02T05:16:34;100461.09;;;5.65;80.93
50364;BME280;36272;59.400;17.982;2023-05-02T05:21:36;100482.16;;;5.67;80.90
50364;BME280;36272;59.400;17.982;2023-05-02T05:26:37;100495.22;;;5.69;81.20
50364;BME280;36272;59.400;17.982;2023-05-02T05:31:39;100498.69;;;5.69;80.97
50364;BME280;36272;59.400;17.982;2023-05-02T05:36:42;100502.53;;;5.66;81.35
50364;BME280;36272;59.400;17.982;2023-05-02T05:41:43;100501.34;;;5.69;81.42
50364;BME280;36272;59.400;17.982;2023-05-02T05:46:45;100505.81;;;5.69;81.18
50364;BME280;36272;59.400;17.982;2023-05-02T05:51:47;100515.44;;;5.70;81.39
50364;BME280;36272;59.400;17.982;2023-05-02T05:56:48;100530.34;;;5.71;81.24
50364;BME280;36272;59.400;17.982;2023-05-02T06:01:50;100533.63;;;5.73;81.39
50364;BME280;36272;59.400;17.982;2023-05-02T06:06:52;100536.13;;;5.81;81.30
50364;BME280;36272;59.400;17.982;2023-05-02T06:12:00;100531.28;;;5.91;81.18
50364;BME280;36272;59.400;17.982;2023-05-02T06:17:02;100553.53;;;5.90;81.03
50364;BME280;36272;59.400;17.982;2023-05-02T06:22:04;100566.22;;;5.95;80.50
50364;BME280;36272;59.400;17.982;2023-05-02T06:27:06;100570.91;;;5.93;80.54
50364;BME280;36272;59.400;17.982;2023-05-02T06:32:17;100556.69;;;6.01;80.64
50364;BME280;36272;59.400;17.982;2023-05-02T06:37:31;100565.31;;;6.09;80.50
50364;BME280;36272;59.400;17.982;2023-05-02T06:42:34;100594.19;;;6.19;80.22
50364;BME280;36272;59.400;17.982;2023-05-02T06:47:39;100603.00;;;6.27;80.25
50364;BME280;36272;59.400;17.982;2023-05-02T06:52:40;100611.38;;;6.30;79.75
50364;BME280;36272;59.400;17.982;2023-05-02T06:57:43;100601.78;;;6.29;80.05
50364;BME280;36272;59.400;17.982;2023-05-02T07:03:12;100604.25;;;6.31;80.48
50364;BME280;36272;59.400;17.982;2023-05-02T07:14:36;100634.50;;;6.30;79.95
50364;BME280;36272;59.400;17.982;2023-05-02T07:19:38;100649.81;;;6.28;79.34
50364;BME280;36272;59.400;17.982;2023-05-02T07:24:40;100659.81;;;6.25;79.17
50364;BME280;36272;59.400;17.982;2023-05-02T07:29:42;100684.72;;;6.24;79.38
50364;BME280;36272;59.400;17.982;2023-05-02T07:34:44;100691.53;;;6.34;79.06
50364;BME280;36272;59.400;17.982;2023-05-02T07:39:45;100706.53;;;6.48;78.63
50364;BME280;36272;59.400;17.982;2023-05-02T07:44:47;100714.81;;;6.60;78.24
50364;BME280;36272;59.400;17.982;2023-05-02T07:49:52;100700.53;;;6.68;77.20
50364;BME280;36272;59.400;17.982;2023-05-02T07:54:56;100734.97;;;6.90;76.89
50364;BME280;36272;59.400;17.982;2023-05-02T07:59:58;100738.72;;;7.02;75.90
50364;BME280;36272;59.400;17.982;2023-05-02T08:05:00;100766.16;;;7.09;75.42
50364;BME280;36272;59.400;17.982;2023-05-02T08:10:01;100751.47;;;7.13;74.94
50364;BME280;36272;59.400;17.982;2023-05-02T08:15:05;100754.75;;;7.16;74.73
50364;BME280;36272;59.400;17.982;2023-05-02T08:46:22;100827.78;;;7.13;75.99
50364;BME280;36272;59.400;17.982;2023-05-02T08:51:24;100848.88;;;7.14;76.66
50364;BME280;36272;59.400;17.982;2023-05-02T08:56:29;100852.94;;;7.10;77.21
50364;BME280;36272;59.400;17.982;2023-05-02T09:01:32;100840.13;;;7.21;76.61
50364;BME280;36272;59.400;17.982;2023-05-02T09:06:36;100864.59;;;7.51;75.33
50364;BME280;36272;59.400;17.982;2023-05-02T09:11:37;100870.22;;;7.77;75.01
50364;BME280;36272;59.400;17.982;2023-05-02T09:16:39;100876.63;;;7.89;73.57
50364;BME280;36272;59.400;17.982;2023-05-02T09:21:41;100886.03;;;7.85;74.01
50364;BME280;36272;59.400;17.982;2023-05-02T09:26:56;100878.88;;;7.92;72.87
50364;BME280;36272;59.400;17.982;2023-05-02T09:32:04;100869.25;;;7.98;72.52
50364;BME280;36272;59.400;17.982;2023-05-02T09:37:06;100905.19;;;8.22;71.91
50364;BME280;36272;59.400;17.982;2023-05-02T09:42:08;100894.78;;;8.47;70.45
50364;BME280;36272;59.400;17.982;2023-05-02T09:47:23;100890.50;;;8.60;70.30
50364;BME280;36272;59.400;17.982;2023-05-02T09:52:25;100921.88;;;8.65;69.09
50364;BME280;36272;59.400;17.982;2023-05-02T09:57:38;100898.91;;;8.77;69.19
50364;BME280;36272;59.400;17.982;2023-05-02T10:02:41;100913.28;;;8.89;67.59
50364;BME280;36272;59.400;17.982;2023-05-02T10:07:43;100928.28;;;9.04;67.41
50364;BME280;36272;59.400;17.982;2023-05-02T10:12:46;100920.44;;;9.22;66.55
50364;BME280;36272;59.400;17.982;2023-05-02T10:17:50;100933.38;;;9.26;65.71
50364;BME280;36272;59.400;17.982;2023-05-02T10:22:53;100943.84;;;9.20;66.61
50364;BME280;36272;59.400;17.982;2023-05-02T10:27:56;100928.00;;;9.39;66.13
50364;BME280;36272;59.400;17.982;2023-05-02T10:33:02;100919.44;;;9.82;65.58
50364;BME280;36272;59.400;17.982;2023-05-02T10:38:04;100921.56;;;10.12;64.57
50364;BME280;36272;59.400;17.982;2023-05-02T10:43:07;100931.53;;;10.31;63.20
50364;BME280;36272;59.400;17.982;2023-05-02T10:48:19;100942.91;;;10.58;62.13
50364;BME280;36272;59.400;17.982;2023-05-02T10:53:35;100959.81;;;10.52;62.36
50364;BME280;36272;59.400;17.982;2023-05-02T10:58:37;100984.03;;;10.18;62.50
50364;BME280;36272;59.400;17.982;2023-05-02T11:03:56;100967.56;;;10.21;62.45
50364;BME280;36272;59.400;17.982;2023-05-02T11:09:30;100971.31;;;11.10;61.48
50364;BME280;36272;59.400;17.982;2023-05-02T11:24:46;100977.94;;;17.24;51.23
50364;BME280;36272;59.400;17.982;2023-05-02T11:29:52;100968.16;;;20.04;48.08
50364;BME280;36272;59.400;17.982;2023-05-02T11:34:54;100978.91;;;20.19;47.50
50364;BME280;36272;59.400;17.982;2023-05-02T11:40:09;100999.03;;;19.42;46.49
50364;BME280;36272;59.400;17.982;2023-05-02T11:45:11;101001.06;;;21.12;43.76
50364;BME280;36272;59.400;17.982;2023-05-02T11:50:14;100987.72;;;21.88;41.68
50364;BME280;36272;59.400;17.982;2023-05-02T11:55:16;101020.63;;;21.67;41.37
50364;BME280;36272;59.400;17.982;2023-05-02T12:00:18;101031.69;;;19.87;41.73
50364;BME280;36272;59.400;17.982;2023-05-02T12:05:27;101013.84;;;20.76;42.22
50364;BME280;36272;59.400;17.982;2023-05-02T12:10:36;101010.66;;;20.64;40.71
50364;BME280;36272;59.400;17.982;2023-05-02T12:15:38;101019.53;;;20.80;40.19
50364;BME280;36272;59.400;17.982;2023-05-02T12:20:40;101037.56;;;20.65;38.86
50364;BME280;36272;59.400;17.982;2023-05-02T12:25:42;101057.53;;;19.69;39.66
50364;BME280;36272;59.400;17.982;2023-05-02T12:30:46;101032.44;;;21.82;38.25
50364;BME280;36272;59.400;17.982;2023-05-02T12:35:48;101041.50;;;24.00;36.06
50364;BME280;36272;59.400;17.982;2023-05-02T12:40:53;101054.28;;;23.30;35.95
50364;BME280;36272;59.400;17.982;2023-05-02T12:46:10;101055.97;;;23.59;35.31
50364;BME280;36272;59.400;17.982;2023-05-02T12:51:21;101062.19;;;24.29;34.08
50364;BME280;36272;59.400;17.982;2023-05-02T12:56:24;101085.22;;;23.06;35.16
50364;BME280;36272;59.400;17.982;2023-05-02T13:01:32;101096.44;;;22.04;35.85
50364;BME280;36272;59.400;17.982;2023-05-02T13:06:34;101113.09;;;20.08;37.38
50364;BME280;36272;59.400;17.982;2023-05-02T13:11:38;101119.63;;;19.86;38.02
50364;BME280;36272;59.400;17.982;2023-05-02T13:21:51;101122.81;;;21.84;35.68
50364;BME280;36272;59.400;17.982;2023-05-02T13:26:52;101133.66;;;22.33;35.12
50364;BME280;36272;59.400;17.982;2023-05-02T13:31:54;101136.47;;;21.79;35.11
50364;BME280;36272;59.400;17.982;2023-05-02T13:36:56;101148.31;;;20.89;35.95
50364;BME280;36272;59.400;17.982;2023-05-02T13:41:58;101148.31;;;20.24;36.47
50364;BME280;36272;59.400;17.982;2023-05-02T13:46:59;101159.38;;;20.38;36.60
50364;BME280;36272;59.400;17.982;2023-05-02T13:52:01;101157.78;;;21.96;34.71
50364;BME280;36272;59.400;17.982;2023-05-02T13:57:03;101169.38;;;22.31;34.53
50364;BME280;36272;59.400;17.982;2023-05-02T14:02:06;101176.22;;;21.00;35.35
50364;BME280;36272;59.400;17.982;2023-05-02T14:07:07;101195.09;;;19.53;36.21
50364;BME280;36272;59.400;17.982;2023-05-02T14:12:09;101195.66;;;18.07;37.71
50364;BME280;36272;59.400;17.982;2023-05-02T14:17:11;101211.25;;;17.02;39.06
50364;BME280;36272;59.400;17.982;2023-05-02T14:22:13;101209.69;;;17.99;38.53
50364;BME280;36272;59.400;17.982;2023-05-02T14:27:14;101213.25;;;20.20;36.65
50364;BME280;36272;59.400;17.982;2023-05-02T14:32:22;101195.91;;;21.96;35.25
50364;BME280;36272;59.400;17.982;2023-05-02T14:37:24;101220.84;;;22.33;35.03
50364;BME280;36272;59.400;17.982;2023-05-02T14:42:26;101233.50;;;22.72;34.61
50364;BME280;36272;59.400;17.982;2023-05-02T14:47:28;101237.44;;;22.61;34.30
50364;BME280;36272;59.400;17.982;2023-05-02T14:52:32;101243.66;;;22.12;34.31
50364;BME280;36272;59.400;17.982;2023-05-02T14:57:34;101253.34;;;20.49;35.85
50364;BME280;36272;59.400;17.982;2023-05-02T15:02:36;101266.38;;;20.57;36.20
50364;BME280;36272;59.400;17.982;2023-05-02T15:07:41;101239.44;;;20.61;36.33
50364;BME280;36272;59.400;17.982;2023-05-02T15:12:42;101266.13;;;20.48;36.67
50364;BME280;36272;59.400;17.982;2023-05-02T15:17:45;101265.91;;;19.83;36.49
50364;BME280;36272;59.400;17.982;2023-05-02T15:22:47;101268.63;;;18.83;37.74
50364;BME280;36272;59.400;17.982;2023-05-02T15:27:48;101278.78;;;18.55;38.21
50364;BME280;36272;59.400;17.982;2023-05-02T15:32:50;101276.59;;;18.52;38.35
50364;BME280;36272;59.400;17.982;2023-05-02T15:37:52;101281.44;;;18.45;38.19
50364;BME280;36272;59.400;17.982;2023-05-02T15:42:53;101291.28;;;18.18;38.19
50364;BME280;36272;59.400;17.982;2023-05-02T15:47:55;101285.06;;;17.58;38.97
50364;BME280;36272;59.400;17.982;2023-05-02T15:52:57;101300.84;;;17.16;39.49
50364;BME280;36272;59.400;17.982;2023-05-02T15:57:58;101310.97;;;16.87;40.19
50364;BME280;36272;59.400;17.982;2023-05-02T16:03:00;101301.97;;;16.59;41.33
50364;BME280;36272;59.400;17.982;2023-05-02T16:08:04;101301.91;;;16.19;40.86
50364;BME280;36272;59.400;17.982;2023-05-02T16:13:06;101317.22;;;15.85;41.34
50364;BME280;36272;59.400;17.982;2023-05-02T16:18:07;101335.81;;;15.69;41.06
50364;BME280;36272;59.400;17.982;2023-05-02T16:23:09;101353.53;;;15.36;41.58
50364;BME280;36272;59.400;17.982;2023-05-02T16:28:11;101362.75;;;14.99;42.20
50364;BME280;36272;59.400;17.982;2023-05-02T16:33:12;101351.63;;;14.84;42.56
50364;BME280;36272;59.400;17.982;2023-05-02T16:38:14;101351.97;;;14.64;42.68
50364;BME280;36272;59.400;17.982;2023-05-02T16:43:16;101354.97;;;14.32;42.70
50364;BME280;36272;59.400;17.982;2023-05-02T16:48:18;101353.88;;;14.09;43.58
50364;BME280;36272;59.400;17.982;2023-05-02T16:53:20;101378.25;;;13.95;43.87
50364;BME280;36272;59.400;17.982;2023-05-02T16:58:24;101387.16;;;13.96;44.35
50364;BME280;36272;59.400;17.982;2023-05-02T17:03:29;101385.09;;;13.79;43.76
50364;BME280;36272;59.400;17.982;2023-05-02T17:08:30;101389.69;;;13.60;44.54
50364;BME280;36272;59.400;17.982;2023-05-02T17:13:33;101379.97;;;13.41;44.85
50364;BME280;36272;59.400;17.982;2023-05-02T17:18:35;101399.63;;;13.22;44.79
50364;BME280;36272;59.400;17.982;2023-05-02T17:23:37;101389.66;;;13.04;45.31
50364;BME280;36272;59.400;17.982;2023-05-02T17:28:40;101394.13;;;12.92;45.57
50364;BME280;36272;59.400;17.982;2023-05-02T17:33:42;101415.28;;;12.82;45.88
50364;BME280;36272;59.400;17.982;2023-05-02T17:38:43;101402.41;;;12.65;46.10
50364;BME280;36272;59.400;17.982;2023-05-02T17:43:45;101402.91;;;12.55;46.22
50364;BME280;36272;59.400;17.982;2023-05-02T17:48:47;101412.47;;;12.44;46.81
50364;BME280;36272;59.400;17.982;2023-05-02T17:53:53;101408.84;;;12.32;47.37
50364;BME280;36272;59.400;17.982;2023-05-02T17:58:54;101422.50;;;12.24;47.31
50364;BME280;36272;59.400;17.982;2023-05-02T18:03:56;101421.22;;;12.01;47.93
50364;BME280;36272;59.400;17.982;2023-05-02T18:09:02;101425.19;;;11.85;48.30
50364;BME280;36272;59.400;17.982;2023-05-02T18:14:03;101426.50;;;11.69;48.56
50364;BME280;36272;59.400;17.982;2023-05-02T18:19:06;101436.03;;;11.51;48.94
50364;BME280;36272;59.400;17.982;2023-05-02T18:24:08;101434.41;;;11.37;48.98
50364;BME280;36272;59.400;17.982;2023-05-02T18:29:10;101436.91;;;11.25;49.17
50364;BME280;36272;59.400;17.982;2023-05-02T18:34:30;101424.97;;;11.14;49.50
50364;BME280;36272;59.400;17.982;2023-05-02T18:40:06;101432.59;;;11.04;50.02
50364;BME280;36272;59.400;17.982;2023-05-02T18:45:08;101442.69;;;11.01;49.30
50364;BME280;36272;59.400;17.982;2023-05-02T18:50:10;101465.16;;;10.74;49.93
50364;BME280;36272;59.400;17.982;2023-05-02T18:55:12;101458.34;;;10.58;50.19
50364;BME280;36272;59.400;17.982;2023-05-02T19:00:14;101473.97;;;10.47;50.80
50364;BME280;36272;59.400;17.982;2023-05-02T19:05:16;101481.09;;;10.33;51.18
50364;BME280;36272;59.400;17.982;2023-05-02T19:10:20;101465.63;;;10.15;51.96
50364;BME280;36272;59.400;17.982;2023-05-02T19:15:22;101486.56;;;10.05;51.46
50364;BME280;36272;59.400;17.982;2023-05-02T19:20:27;101488.16;;;9.99;51.49
50364;BME280;36272;59.400;17.982;2023-05-02T19:25:30;101501.91;;;9.96;51.73
50364;BME280;36272;59.400;17.982;2023-05-02T19:30:32;101500.06;;;9.90;52.14
50364;BME280;36272;59.400;17.982;2023-05-02T19:35:36;101494.50;;;9.85;52.41
50364;BME280;36272;59.400;17.982;2023-05-02T19:40:38;101514.41;;;9.82;52.39
50364;BME280;36272;59.400;17.982;2023-05-02T19:45:39;101509.03;;;9.75;52.43
50364;BME280;36272;59.400;17.982;2023-05-02T19:50:41;101508.78;;;9.70;52.74
50364;BME280;36272;59.400;17.982;2023-05-02T19:55:43;101521.72;;;9.66;52.65
50364;BME280;36272;59.400;17.982;2023-05-02T20:00:45;101525.19;;;9.60;53.24
50364;BME280;36272;59.400;17.982;2023-05-02T20:05:50;101516.09;;;9.55;53.08
50364;BME280;36272;59.400;17.982;2023-05-02T20:10:53;101516.47;;;9.51;53.19
50364;BME280;36272;59.400;17.982;2023-05-02T20:15:54;101531.06;;;9.49;53.35
50364;BME280;36272;59.400;17.982;2023-05-02T20:20:56;101528.97;;;9.44;53.33
50364;BME280;36272;59.400;17.982;2023-05-02T20:25:58;101528.91;;;9.37;53.51
50364;BME280;36272;59.400;17.982;2023-05-02T20:31:02;101527.22;;;9.30;53.82
50364;BME280;36272;59.400;17.982;2023-05-02T20:36:04;101541.34;;;9.23;53.88
50364;BME280;36272;59.400;17.982;2023-05-02T20:41:06;101543.75;;;9.18;54.22
50364;BME280;36272;59.400;17.982;2023-05-02T20:46:13;101531.81;;;9.14;54.20
50364;BME280;36272;59.400;17.982;2023-05-02T20:51:19;101546.00;;;9.15;54.35
50364;BME280;36272;59.400;17.982;2023-05-02T20:56:21;101549.69;;;9.14;53.78
50364;BME280;36272;59.400;17.982;2023-05-02T21:01:24;101537.78;;;9.16;53.77
50364;BME280;36272;59.400;17.982;2023-05-02T21:06:26;101555.06;;;9.20;53.67
50364;BME280;36272;59.400;17.982;2023-05-02T21:11:27;101557.56;;;9.22;53.74
50364;BME280;36272;59.400;17.982;2023-05-02T21:16:29;101561.88;;;9.23;54.20
50364;BME280;36272;59.400;17.982;2023-05-02T21:21:31;101563.28;;;9.19;54.66
50364;BME280;36272;59.400;17.982;2023-05-02T21:26:32;101561.16;;;9.14;54.73
50364;BME280;36272;59.400;17.982;2023-05-02T21:31:34;101571.22;;;9.12;55.05
50364;BME280;36272;59.400;17.982;2023-05-02T21:36:36;101582.47;;;9.07;55.33
50364;BME280;36272;59.400;17.982;2023-05-02T21:41:38;101587.97;;;9.06;55.37
50364;BME280;36272;59.400;17.982;2023-05-02T21:46:39;101582.59;;;8.99;55.52
50364;BME280;36272;59.400;17.982;2023-05-02T21:51:41;101583.19;;;8.95;55.94
50364;BME280;36272;59.400;17.982;2023-05-02T21:56:42;101588.25;;;8.89;55.83
50364;BME280;36272;59.400;17.982;2023-05-02T22:01:44;101583.66;;;8.83;55.97
50364;BME280;36272;59.400;17.982;2023-05-02T22:06:50;101575.41;;;8.78;56.36
50364;BME280;36272;59.400;17.982;2023-05-02T22:11:52;101595.47;;;8.74;56.39
50364;BME280;36272;59.400;17.982;2023-05-02T22:16:53;101583.25;;;8.65;56.55
50364;BME280;36272;59.400;17.982;2023-05-02T22:21:59;101580.16;;;8.61;57.02
50364;BME280;36272;59.400;17.982;2023-05-02T22:27:01;101592.41;;;8.55;57.02
50364;BME280;36272;59.400;17.982;2023-05-02T22:32:03;101585.16;;;8.49;57.21
50364;BME280;36272;59.400;17.982;2023-05-02T22:37:05;101593.47;;;8.46;57.57
50364;BME280;36272;59.400;17.982;2023-05-02T22:42:07;101592.00;;;8.43;57.80
50364;BME280;36272;59.400;17.982;2023-05-02T22:47:08;101593.78;;;8.36;58.01
50364;BME280;36272;59.400;17.982;2023-05-02T22:52:12;101581.00;;;8.31;58.22
50364;BME280;36272;59.400;17.982;2023-05-02T22:57:14;101603.25;;;8.24;58.21
50364;BME280;36272;59.400;17.982;2023-05-02T23:02:16;101602.13;;;8.18;58.63
50364;BME280;36272;59.400;17.982;2023-05-02T23:07:18;101604.53;;;8.13;58.64
50364;BME280;36272;59.400;17.982;2023-05-02T23:12:20;101599.09;;;8.06;58.84
50364;BME280;36272;59.400;17.982;2023-05-02T23:17:22;101601.31;;;8.02;58.92
50364;BME280;36272;59.400;17.982;2023-05-02T23:22:23;101608.19;;;7.97;59.39
50364;BME280;36272;59.400;17.982;2023-05-02T23:27:25;101601.13;;;7.89;59.42
50364;BME280;36272;59.400;17.982;2023-05-02T23:32:27;101600.03;;;7.83;59.72
50364;BME280;36272;59.400;17.982;2023-05-02T23:37:29;101607.09;;;7.76;59.85
50364;BME280;36272;59.400;17.982;2023-05-02T23:42:31;101599.00;;;7.69;59.93
50364;BME280;36272;59.400;17.982;2023-05-02T23:47:35;101611.38;;;7.62;60.30
50364;BME280;36272;59.400;17.982;2023-05-02T23:52:36;101614.13;;;7.54;60.47
50364;BME280;36272;59.400;17.982;2023-05-02T23:57:38;101615.19;;;7.44;60.81
